createdAt,value
2019-01-04T00:00:58.696Z,9.00
2019-01-04T00:03:28.447Z,7.43
2019-01-04T00:05:58.177Z,9.63
2019-01-04T00:08:27.836Z,9.33
2019-01-04T00:10:57.484Z,8.33
2019-01-04T00:13:27.079Z,8.53
2019-01-04T00:15:56.602Z,6.87
2019-01-04T00:18:26.277Z,8.60
2019-01-04T00:20:55.797Z,6.83
2019-01-04T00:23:25.550Z,7.10
2019-01-04T00:25:55.158Z,9.97
2019-01-04T00:28:24.796Z,8.70
2019-01-04T00:30:54.489Z,7.63
2019-01-04T00:33:24.135Z,8.20
2019-01-04T00:35:53.796Z,9.27
2019-01-04T00:38:23.416Z,8.50
2019-01-04T00:40:53.113Z,7.77
2019-01-04T00:43:22.762Z,9.60
2019-01-04T00:45:52.506Z,8.73
2019-01-04T00:48:21.992Z,9.00
2019-01-04T00:50:51.511Z,6.70
2019-01-04T00:53:21.198Z,7.83
2019-01-04T00:56:16.619Z,9.77
2019-01-04T00:59:22.862Z,9.33
2019-01-04T01:02:31.814Z,9.33
2019-01-04T01:06:00.176Z,9.37
2019-01-04T01:08:56.211Z,8.50
2019-01-04T01:11:59.193Z,8.53
2019-01-04T01:15:16.773Z,9.03
2019-01-04T01:18:16.569Z,10.60
2019-01-04T01:21:29.674Z,10.07
2019-01-04T01:24:53.705Z,8.70
2019-01-04T01:27:58.782Z,8.90
2019-01-04T01:31:04.971Z,8.77
2019-01-04T01:34:10.447Z,11.00
2019-01-04T01:37:27.399Z,10.60
2019-01-04T01:40:40.607Z,9.80
2019-01-04T01:43:52.998Z,9.40
2019-01-04T01:46:39.507Z,10.40
2019-01-04T01:49:36.466Z,11.60
2019-01-04T01:52:12.826Z,9.70
2019-01-04T01:54:42.613Z,10.77
2019-01-04T01:57:14.671Z,10.37
2019-01-04T01:59:44.336Z,12.00
2019-01-04T02:02:14.067Z,11.50
2019-01-04T02:04:45.857Z,8.00
2019-01-04T02:07:15.603Z,8.50
2019-01-04T02:09:45.033Z,9.93
2019-01-04T02:12:14.755Z,12.10
2019-01-04T02:14:44.419Z,10.17
2019-01-04T02:17:14.127Z,11.23
2019-01-04T02:19:43.722Z,10.67
2019-01-04T02:22:13.298Z,11.03
2019-01-04T02:24:42.880Z,11.70
2019-01-04T02:27:12.506Z,12.47
2019-01-04T02:29:42.366Z,11.60
2019-01-04T02:32:12.031Z,11.10
2019-01-04T02:34:41.597Z,14.57
2019-01-04T02:37:11.198Z,11.70
2019-01-04T02:39:40.987Z,14.33
2019-01-04T02:42:10.594Z,12.80
2019-01-04T02:44:40.302Z,14.10
2019-01-04T02:47:09.857Z,11.67
2019-01-04T02:49:39.529Z,13.20
2019-01-04T02:52:09.174Z,16.23
2019-01-04T02:54:38.812Z,12.60
2019-01-04T02:57:08.291Z,14.27
2019-01-04T02:59:37.890Z,12.73
2019-01-04T03:02:09.705Z,11.93
2019-01-04T03:04:39.361Z,12.40
2019-01-04T03:07:08.974Z,13.50
2019-01-04T03:09:38.637Z,12.70
2019-01-04T03:12:08.173Z,12.60
2019-01-04T03:14:37.895Z,15.33
2019-01-04T03:17:07.518Z,10.77
2019-01-04T03:19:37.130Z,15.83
2019-01-04T03:22:06.865Z,14.37
2019-01-04T03:24:37.142Z,14.37
2019-01-04T03:27:06.672Z,15.37
2019-01-04T03:29:36.274Z,19.07
2019-01-04T03:32:05.863Z,16.40
2019-01-04T03:34:35.353Z,14.60
2019-01-04T03:37:05.006Z,16.63
2019-01-04T03:39:34.579Z,16.93
2019-01-04T03:42:04.212Z,14.50
2019-01-04T03:44:33.921Z,15.97
2019-01-04T03:47:07.056Z,17.77
2019-01-04T03:49:36.579Z,11.83
2019-01-04T03:52:06.226Z,17.13
2019-01-04T03:54:36.099Z,14.50
2019-01-04T03:57:05.685Z,16.17
2019-01-04T03:59:35.480Z,12.63
2019-01-04T04:02:05.147Z,13.93
2019-01-04T04:04:34.862Z,13.87
2019-01-04T04:07:04.431Z,14.83
2019-01-04T04:09:34.096Z,15.80
2019-01-04T04:12:03.856Z,15.00
2019-01-04T04:14:33.563Z,17.30
2019-01-04T04:17:03.419Z,14.50
2019-01-04T04:19:33.200Z,13.70
2019-01-04T04:22:02.795Z,13.90
2019-01-04T04:24:32.391Z,18.83
2019-01-04T04:27:01.933Z,12.50
2019-01-04T04:29:31.382Z,14.00
2019-01-04T04:32:00.898Z,13.30
2019-01-04T04:34:30.486Z,13.33
2019-01-04T04:37:00.071Z,15.00
2019-01-04T04:39:29.646Z,13.90
2019-01-04T04:41:59.133Z,13.80
2019-01-04T04:44:28.747Z,13.33
2019-01-04T04:46:58.286Z,15.50
2019-01-04T04:49:28.027Z,13.80
2019-01-04T04:51:57.639Z,14.10
2019-01-04T04:54:27.181Z,14.17
2019-01-04T04:56:56.688Z,14.47
2019-01-04T04:59:26.291Z,13.80
2019-01-04T05:01:55.824Z,14.30
2019-01-04T05:04:25.347Z,12.37
2019-01-04T05:06:55.073Z,14.10
2019-01-04T05:09:25.175Z,13.27
2019-01-04T05:11:54.915Z,11.37
2019-01-04T05:14:24.439Z,14.10
2019-01-04T05:16:54.057Z,11.37
2019-01-04T05:19:23.698Z,13.27
2019-01-04T05:21:53.358Z,12.97
2019-01-04T05:24:23.121Z,13.53
2019-01-04T05:26:52.604Z,12.43
2019-01-04T05:29:22.173Z,12.57
2019-01-04T05:31:51.806Z,12.13
2019-01-04T05:34:21.397Z,11.83
2019-01-04T05:36:50.985Z,12.53
2019-01-04T05:39:20.534Z,9.80
2019-01-04T05:41:50.192Z,12.40
2019-01-04T05:44:19.873Z,10.60
2019-01-04T05:46:49.492Z,12.37
2019-01-04T05:49:19.029Z,11.87
2019-01-04T05:51:48.638Z,12.17
2019-01-04T05:54:18.193Z,11.10
2019-01-04T05:56:47.852Z,12.03
2019-01-04T05:59:17.460Z,12.77
2019-01-04T06:01:47.067Z,14.07
2019-01-04T06:04:16.634Z,11.30
2019-01-04T06:06:47.282Z,12.40
2019-01-04T06:09:16.965Z,10.40
2019-01-04T06:11:46.816Z,11.60
2019-01-04T06:14:16.477Z,13.30
2019-01-04T06:16:46.076Z,9.57
2019-01-04T06:19:15.587Z,10.63
2019-01-04T06:21:45.127Z,9.50
2019-01-04T06:24:14.758Z,10.40
2019-01-04T06:26:44.314Z,11.90
2019-01-04T06:29:14.469Z,10.83
2019-01-04T06:31:44.179Z,11.00
2019-01-04T06:34:13.842Z,11.57
2019-01-04T06:36:44.022Z,12.03
2019-01-04T06:39:13.619Z,11.20
2019-01-04T06:41:43.198Z,11.20
2019-01-04T06:44:12.847Z,10.27
2019-01-04T06:47:19.105Z,10.60
2019-01-04T06:49:50.077Z,12.10
2019-01-04T06:52:21.297Z,8.30
2019-01-04T06:55:27.594Z,8.40
2019-01-04T06:57:57.215Z,11.60
2019-01-04T07:00:26.795Z,15.07
2019-01-04T07:02:56.511Z,12.07
2019-01-04T07:05:26.059Z,12.23
2019-01-04T07:07:56.112Z,13.77
2019-01-04T07:10:25.737Z,12.60
2019-01-04T07:12:55.434Z,13.70
2019-01-04T07:15:25.260Z,12.17
2019-01-04T07:17:54.884Z,10.50
2019-01-04T07:20:24.396Z,11.30
2019-01-04T07:22:53.981Z,11.63
2019-01-04T07:25:23.729Z,10.20
2019-01-04T07:27:53.325Z,11.03
2019-01-04T07:30:22.850Z,11.27
2019-01-04T07:32:52.477Z,13.77
2019-01-04T07:35:22.077Z,12.40
2019-01-04T07:37:51.662Z,11.97
2019-01-04T07:40:21.235Z,11.83
2019-01-04T07:42:50.867Z,12.70
2019-01-04T07:45:20.570Z,10.07
2019-01-04T07:47:50.248Z,11.20
2019-01-04T07:50:19.774Z,12.90
2019-01-04T07:52:49.481Z,10.27
2019-01-04T07:55:19.153Z,11.67
2019-01-04T07:57:48.631Z,10.33
2019-01-04T08:00:18.645Z,8.33
2019-01-04T08:02:50.805Z,9.87
2019-01-04T08:05:27.765Z,8.43
2019-01-04T08:07:57.389Z,8.60
2019-01-04T08:10:26.986Z,8.20
2019-01-04T08:12:56.675Z,9.33
2019-01-04T08:15:26.451Z,9.50
2019-01-04T08:17:56.423Z,9.07
2019-01-04T08:20:26.111Z,8.20
2019-01-04T08:22:55.780Z,8.30
2019-01-04T08:25:25.375Z,9.53
2019-01-04T08:27:54.989Z,8.00
2019-01-04T08:30:24.597Z,9.83
2019-01-04T08:32:54.200Z,8.50
2019-01-04T08:35:34.057Z,8.77
2019-01-04T08:38:03.638Z,7.73
2019-01-04T08:40:34.475Z,10.57
2019-01-04T08:43:04.217Z,8.10
2019-01-04T08:45:33.897Z,7.27
2019-01-04T08:48:03.560Z,8.50
2019-01-04T08:50:34.035Z,6.73
2019-01-04T08:53:03.702Z,9.10
2019-01-04T08:55:37.767Z,7.57
2019-01-04T08:58:07.305Z,7.60
2019-01-04T09:00:36.827Z,8.67
2019-01-04T09:03:06.452Z,8.77
2019-01-04T09:05:36.040Z,7.40
2019-01-04T09:08:05.821Z,9.20
2019-01-04T09:10:35.484Z,9.23
2019-01-04T09:13:05.024Z,7.77
2019-01-04T09:15:34.698Z,7.83
2019-01-04T09:18:04.745Z,7.90
2019-01-04T09:20:34.297Z,8.80
2019-01-04T09:23:04.280Z,7.17
2019-01-04T09:25:33.940Z,7.90
2019-01-04T09:28:03.487Z,8.80
2019-01-04T09:30:33.133Z,8.60
2019-01-04T09:33:02.761Z,5.97
2019-01-04T09:35:38.332Z,6.63
2019-01-04T09:38:07.892Z,7.77
2019-01-04T09:40:37.500Z,6.70
2019-01-04T09:43:07.034Z,8.73
2019-01-04T09:45:36.817Z,5.70
2019-01-04T09:48:06.473Z,5.47
2019-01-04T09:50:35.992Z,6.30
2019-01-04T09:53:05.583Z,5.73
2019-01-04T09:55:35.225Z,5.60
2019-01-04T09:58:04.846Z,4.60
2019-01-04T10:00:34.423Z,7.93
2019-01-04T10:03:04.072Z,5.50
2019-01-04T10:05:33.798Z,4.67
2019-01-04T10:08:03.321Z,4.43
2019-01-04T10:10:32.835Z,2.80
2019-01-04T10:13:02.441Z,5.07
2019-01-04T10:15:32.150Z,6.73
2019-01-04T10:18:01.724Z,5.40
2019-01-04T10:20:31.346Z,4.50
2019-01-04T10:23:00.981Z,3.83
2019-01-04T10:25:30.609Z,5.10
2019-01-04T10:28:00.185Z,6.23
2019-01-04T10:30:30.001Z,6.83
2019-01-04T10:32:59.602Z,4.03
2019-01-04T10:35:29.298Z,2.70
2019-01-04T10:37:58.934Z,4.33
2019-01-04T10:40:28.455Z,3.90
2019-01-04T10:42:58.390Z,4.70
2019-01-04T10:45:35.905Z,4.50
2019-01-04T10:48:05.658Z,4.40
2019-01-04T10:50:35.242Z,5.00
2019-01-04T10:53:04.740Z,5.60
2019-01-04T10:55:34.328Z,4.60
2019-01-04T10:58:04.103Z,3.83
2019-01-04T11:00:33.596Z,5.00
2019-01-04T11:03:03.176Z,5.57
2019-01-04T11:05:32.827Z,6.73
2019-01-04T11:08:03.150Z,6.40
2019-01-04T11:10:32.649Z,8.40
2019-01-04T11:13:02.395Z,8.20
2019-01-04T11:15:32.004Z,4.03
2019-01-04T11:18:01.609Z,8.93
2019-01-04T11:20:48.266Z,6.40
2019-01-04T11:23:50.000Z,9.73
2019-01-04T11:26:46.327Z,5.13
2019-01-04T11:29:58.320Z,9.13
2019-01-04T11:32:56.302Z,6.70
2019-01-04T11:35:55.682Z,8.60
2019-01-04T11:38:44.622Z,8.67
2019-01-04T11:42:07.563Z,8.83
2019-01-04T11:45:07.754Z,7.17
2019-01-04T11:48:13.231Z,8.97
2019-01-04T11:51:25.300Z,9.03
2019-01-04T11:53:57.016Z,10.07
2019-01-04T11:56:26.687Z,8.27
2019-01-04T11:58:56.247Z,10.00
2019-01-04T12:01:25.819Z,10.23
2019-01-04T12:04:00.178Z,7.93
2019-01-04T12:06:29.738Z,10.47
2019-01-04T12:08:59.424Z,5.27
2019-01-04T12:11:29.005Z,8.70
2019-01-04T12:13:58.614Z,10.90
2019-01-04T12:16:28.260Z,8.87
2019-01-04T12:18:57.980Z,12.20
2019-01-04T12:21:27.488Z,10.57
2019-01-04T12:23:57.028Z,10.50
2019-01-04T12:26:29.944Z,11.10
2019-01-04T12:28:59.616Z,10.87
2019-01-04T12:31:29.182Z,10.10
2019-01-04T12:33:58.731Z,12.60
2019-01-04T12:36:34.292Z,10.33
2019-01-04T12:39:04.936Z,8.43
2019-01-04T12:41:34.474Z,11.63
2019-01-04T12:44:04.027Z,8.47
2019-01-04T12:46:35.693Z,8.93
2019-01-04T12:49:05.335Z,8.27
2019-01-04T12:51:34.872Z,9.73
2019-01-04T12:54:04.368Z,10.17
2019-01-04T12:56:34.058Z,10.77
2019-01-04T12:59:03.607Z,11.17
2019-01-04T13:01:33.200Z,12.30
2019-01-04T13:04:02.706Z,10.40
2019-01-04T13:06:32.295Z,11.57
2019-01-04T13:09:01.847Z,8.37
2019-01-04T13:11:31.419Z,9.07
2019-01-04T13:14:01.206Z,7.03
2019-01-04T13:16:31.065Z,9.17
2019-01-04T13:19:00.697Z,7.33
2019-01-04T13:21:30.236Z,9.37
2019-01-04T13:23:59.817Z,6.17
2019-01-04T13:26:30.457Z,9.00
2019-01-04T13:29:00.054Z,10.60
2019-01-04T13:31:29.655Z,11.10
2019-01-04T13:33:59.220Z,10.20
2019-01-04T13:36:28.772Z,10.87
2019-01-04T13:38:58.391Z,12.17
2019-01-04T13:41:28.074Z,8.57
2019-01-04T13:43:57.660Z,11.20
2019-01-04T13:46:27.460Z,9.97
2019-01-04T13:48:57.137Z,11.60
2019-01-04T13:51:26.886Z,10.87
2019-01-04T13:53:56.473Z,8.17
2019-01-04T13:56:26.160Z,10.07
2019-01-04T13:58:55.805Z,7.60
2019-01-04T14:01:25.469Z,10.80
2019-01-04T14:03:55.039Z,8.20
2019-01-04T14:06:30.785Z,8.43
2019-01-04T14:09:00.497Z,8.80
2019-01-04T14:11:30.102Z,10.00
2019-01-04T14:13:59.666Z,8.23
2019-01-04T14:16:29.430Z,8.73
2019-01-04T14:18:58.988Z,6.87
2019-01-04T14:21:28.614Z,11.33
2019-01-04T14:23:58.236Z,12.27
2019-01-04T14:26:27.973Z,10.60
2019-01-04T14:28:57.633Z,6.23
2019-01-04T14:31:27.378Z,9.33
2019-01-04T14:33:56.872Z,11.73
2019-01-04T14:36:26.569Z,11.43
2019-01-04T14:38:56.260Z,8.70
2019-01-04T14:41:25.845Z,6.67
2019-01-04T14:43:55.414Z,11.67
2019-01-04T14:46:25.258Z,11.90
2019-01-04T14:48:54.939Z,10.50
2019-01-04T14:51:24.825Z,11.67
2019-01-04T14:53:54.445Z,11.00
2019-01-04T14:56:24.141Z,12.70
2019-01-04T14:58:53.903Z,10.97
2019-01-04T15:01:23.741Z,9.60
2019-01-04T15:03:53.257Z,11.20
2019-01-04T15:06:22.951Z,9.60
2019-01-04T15:08:52.460Z,11.50
2019-01-04T15:11:22.245Z,9.17
2019-01-04T15:13:51.751Z,10.17
2019-01-04T15:16:21.271Z,10.40
2019-01-04T15:18:51.015Z,12.87
2019-01-04T15:21:20.733Z,13.97
2019-01-04T15:23:50.487Z,10.47
2019-01-04T15:26:20.163Z,12.50
2019-01-04T15:28:49.992Z,14.17
2019-01-04T15:31:22.920Z,11.23
2019-01-04T15:33:52.517Z,17.00
2019-01-04T15:36:22.200Z,12.40
2019-01-04T15:38:51.858Z,13.27
2019-01-04T15:41:21.635Z,11.33
2019-01-04T15:43:51.346Z,12.10
2019-01-04T15:46:21.090Z,10.10
2019-01-04T15:48:50.906Z,11.83
2019-01-04T15:51:20.492Z,11.33
2019-01-04T15:53:50.223Z,12.97
2019-01-04T15:56:20.083Z,10.27
2019-01-04T15:58:56.091Z,13.27
2019-01-04T16:01:26.046Z,11.87
2019-01-04T16:03:56.046Z,12.50
2019-01-04T16:06:26.046Z,12.40
2019-01-04T16:08:56.137Z,11.50
2019-01-04T16:11:25.948Z,12.17
2019-01-04T16:13:56.123Z,10.10
2019-01-04T16:16:26.090Z,11.80
2019-01-04T16:18:56.166Z,14.70
2019-01-04T16:21:25.907Z,10.30
2019-01-04T16:23:55.808Z,15.30
2019-01-04T16:26:25.726Z,12.20
2019-01-04T16:28:55.828Z,10.60
2019-01-04T16:31:25.670Z,13.50
2019-01-04T16:33:55.328Z,13.60
2019-01-04T16:36:25.089Z,9.90
2019-01-04T16:38:54.919Z,13.67
2019-01-04T16:41:25.053Z,13.63
2019-01-04T16:43:55.170Z,14.80
2019-01-04T16:46:25.099Z,13.07
2019-01-04T16:48:55.146Z,9.57
2019-01-04T16:51:25.065Z,15.00
2019-01-04T16:53:54.652Z,13.27
2019-01-04T16:56:24.488Z,14.73
2019-01-04T16:58:54.324Z,10.23
2019-01-04T17:01:24.381Z,13.27
2019-01-04T17:03:54.302Z,11.80
2019-01-04T17:06:24.226Z,13.33
2019-01-04T17:08:54.051Z,13.03
2019-01-04T17:11:24.107Z,7.80
2019-01-04T17:13:53.851Z,13.30
2019-01-04T17:16:23.717Z,15.47
2019-01-04T17:18:53.484Z,13.20
2019-01-04T17:21:23.340Z,13.17
2019-01-04T17:23:53.143Z,14.20
2019-01-04T17:26:22.913Z,16.27
2019-01-04T17:28:58.723Z,15.57
2019-01-04T17:31:28.684Z,15.27
2019-01-04T17:33:58.613Z,15.00
2019-01-04T17:36:28.430Z,13.83
2019-01-04T17:38:58.523Z,12.23
2019-01-04T17:41:28.229Z,13.93
2019-01-04T17:43:58.358Z,12.50
2019-01-04T17:46:28.439Z,15.47
2019-01-04T17:48:58.261Z,14.37
2019-01-04T17:51:28.146Z,9.37
2019-01-04T17:53:57.970Z,15.07
2019-01-04T17:56:28.418Z,15.03
2019-01-04T17:58:58.629Z,13.77
2019-01-04T18:01:28.800Z,11.10
2019-01-04T18:03:58.749Z,14.83
2019-01-04T18:06:28.669Z,12.67
2019-01-04T18:08:58.908Z,14.37
2019-01-04T18:11:28.927Z,13.10
2019-01-04T18:13:59.087Z,13.20
2019-01-04T18:16:29.088Z,13.40
2019-01-04T18:18:59.266Z,13.77
2019-01-04T18:21:29.390Z,12.53
2019-01-04T18:23:59.451Z,10.47
2019-01-04T18:26:29.579Z,12.33
2019-01-04T18:28:59.638Z,13.90
2019-01-04T18:31:29.724Z,8.97
2019-01-04T18:33:59.852Z,13.33
2019-01-04T18:36:30.102Z,12.07
2019-01-04T18:39:07.832Z,13.23
2019-01-04T18:41:38.024Z,13.57
2019-01-04T18:44:08.223Z,16.37
2019-01-04T18:46:38.260Z,15.97
2019-01-04T18:49:09.547Z,13.60
2019-01-04T18:51:39.467Z,13.30
2019-01-04T18:54:09.555Z,14.77
2019-01-04T18:56:39.658Z,14.10
2019-01-04T18:59:09.668Z,15.77
2019-01-04T19:01:41.947Z,14.33
2019-01-04T19:04:11.975Z,13.47
2019-01-04T19:06:42.128Z,16.50
2019-01-04T19:09:12.302Z,15.30
2019-01-04T19:11:43.555Z,17.63
2019-01-04T19:14:13.789Z,14.60
2019-01-04T19:16:43.924Z,13.57
2019-01-04T19:19:13.990Z,15.30
2019-01-04T19:21:44.078Z,14.37
2019-01-04T19:24:14.118Z,13.57
2019-01-04T19:26:44.238Z,14.37
2019-01-04T19:29:14.281Z,9.67
2019-01-04T19:31:44.555Z,12.77
2019-01-04T19:34:14.697Z,12.03
2019-01-04T19:36:44.705Z,13.30
2019-01-04T19:39:14.930Z,12.80
2019-01-04T19:41:45.069Z,12.30
2019-01-04T19:44:15.117Z,12.50
2019-01-04T19:46:45.335Z,14.57
2019-01-04T19:49:15.455Z,14.17
2019-01-04T19:51:45.717Z,13.80
2019-01-04T19:54:15.824Z,12.90
2019-01-04T19:56:45.980Z,13.00
2019-01-04T19:59:16.176Z,14.40
2019-01-04T20:01:46.423Z,14.30
2019-01-04T20:04:16.629Z,12.73
2019-01-04T20:07:57.189Z,11.47
2019-01-04T20:11:17.493Z,10.40
2019-01-04T20:14:36.182Z,10.73
2019-01-04T20:17:28.527Z,12.17
2019-01-04T20:20:36.317Z,10.97
2019-01-04T20:23:34.637Z,11.93
2019-01-04T20:26:22.129Z,11.87
2019-01-04T20:29:11.161Z,12.50
2019-01-04T20:32:12.442Z,11.37
2019-01-04T20:35:14.806Z,11.67
2019-01-04T20:38:02.495Z,11.00
2019-01-04T20:40:51.431Z,12.70
2019-01-04T20:43:40.415Z,13.07
2019-01-04T20:46:40.210Z,12.93
2019-01-04T20:49:28.775Z,13.80
2019-01-04T20:52:26.967Z,13.90
2019-01-04T20:55:14.590Z,14.27
2019-01-04T20:58:02.337Z,12.50
2019-01-04T21:00:57.451Z,14.97
2019-01-04T21:03:52.648Z,12.17
2019-01-04T21:06:53.672Z,14.20
2019-01-04T21:09:54.703Z,13.10
2019-01-04T21:12:59.187Z,9.30
2019-01-04T21:16:01.010Z,12.20
2019-01-04T21:18:58.796Z,11.10
2019-01-04T21:21:46.455Z,12.00
2019-01-04T21:24:38.209Z,12.10
2019-01-04T21:27:35.977Z,12.37
2019-01-04T21:30:27.896Z,13.17
2019-01-04T21:33:32.234Z,11.50
2019-01-04T21:36:27.109Z,11.80
2019-01-04T21:39:14.750Z,10.63
2019-01-04T21:42:12.956Z,9.40
2019-01-04T21:45:10.758Z,11.27
2019-01-04T21:47:58.629Z,11.20
2019-01-04T21:50:46.089Z,10.63
2019-01-04T21:53:38.021Z,11.03
2019-01-04T21:56:29.597Z,10.60
2019-01-04T21:59:17.108Z,10.80
2019-01-04T22:02:15.041Z,12.30
2019-01-04T22:05:02.973Z,9.90
2019-01-04T22:08:06.864Z,9.87
2019-01-04T22:11:08.120Z,11.53
2019-01-04T22:13:55.621Z,9.90
2019-01-04T22:16:43.294Z,11.27
2019-01-04T22:19:40.937Z,10.77
2019-01-04T22:22:28.699Z,11.50
2019-01-04T22:25:17.282Z,9.90
2019-01-04T22:28:05.881Z,9.53
2019-01-04T22:30:47.909Z,10.23
2019-01-04T22:33:48.840Z,9.20
2019-01-04T22:36:37.415Z,7.83
2019-01-04T22:39:29.976Z,8.00
2019-01-04T22:42:27.615Z,5.87
2019-01-04T22:45:11.289Z,6.70
2019-01-04T22:48:14.955Z,6.60
2019-01-04T22:51:04.976Z,8.43
2019-01-04T22:53:52.095Z,6.87
2019-01-04T22:56:43.445Z,6.83
2019-01-04T22:59:31.857Z,6.20
2019-01-04T23:02:19.180Z,7.23
2019-01-04T23:05:16.947Z,6.47
2019-01-04T23:08:14.557Z,7.03
2019-01-04T23:11:15.568Z,6.23
2019-01-04T23:14:13.211Z,7.07
2019-01-04T23:17:13.887Z,7.43
2019-01-04T23:20:05.256Z,6.13
2019-01-04T23:23:01.514Z,7.07
2019-01-04T23:25:59.069Z,6.17
2019-01-04T23:28:46.287Z,7.03
2019-01-04T23:31:43.855Z,6.33
2019-01-04T23:34:30.945Z,7.50
2019-01-04T23:37:28.439Z,7.40
2019-01-04T23:40:25.957Z,5.50
2019-01-04T23:43:23.696Z,6.10
2019-01-04T23:46:10.874Z,7.83
2019-01-04T23:48:58.561Z,5.50
2019-01-04T23:51:59.356Z,6.93
2019-01-04T23:54:47.448Z,9.00
2019-01-04T23:57:45.002Z,8.23
